메인 페이지
METAR-TAF:

METAR-TAF

공항 :

윌밍턴, 델라웨어, 미국

위도: 39-40-22N, 경도: 075-36-03W, 고도: 24m

현재 날씨관측

예보는 44분 전, 21:51시(UTC)에 발표되었습니다.
9kt
온도 8°C
습도 71%
기압 1013 hPa
시정: 16.1km
고도 2100ft 상공 흐림

METAR: KILG 312151Z 10009KT 10SM OVC021 08/03 A2992 RMK AO2 SLP132 T00830033

시각: 18:35 (22:35 UTC)

예보

예보는 5 시간 6분 전, 17:29시(UTC)에 발표되었습니다.
예보 대상 시간: 31일 18시부터 01일 18시까지 (UTC)
10kt
시정: 10km
고도 1500ft 상공 구름 많음
고도 2500ft 상공 흐림
31일 2000시부터 (UTC)
8kt
시정: 10km
고도 2500ft 상공 흐림
01일 0100시부터 (UTC)
8kt
시정: 10km
고도 2500ft 상공 구름 보통
고도 4000ft 상공 흐림
01일 0700시부터 (UTC)
북동7kt
시정: 10km
고도 3000ft 상공 구름 보통
고도 5000ft 상공 구름 많음
01일 1400시부터 (UTC)
북북동10kt
시정: 10km
고도 5000ft 상공 구름 많음

TAF: KILG 311729Z 3118/0118 10010KT P6SM BKN015 OVC025 FM312000 09008KT P6SM OVC025 FM010100 09008KT P6SM SCT025 OVC040 FM010700 05007KT P6SM SCT030 BKN050 FM011400 02010KT P6SM BKN050

4,000개 이상의 공항 관측 자료 및 예보 (METAR 및 TAF 보고).

지도상에서 검색 가능한 기상관측소가 노란 점과 빨간 점으로 표시되어 있습니다.

기상관측소 명을 보려면 표시 위로 마우스를 이동하세요.

날씨 관측과 예보를 보려면 클릭하세요.

지도 변경 : 확대하려면 엑스 표시가 있는 녹색 버튼, 축소하려면 빼기 표시가 있는 녹색 버튼, 다음 페이지의 지도를 보려면 녹색 화살표를 클릭하세요.


METAR-TAF: